ADDS METAR Data INFO
IDs: Format: Raw Decoded Include TAF

Data at: 0301 UTC 21 Jan 2018

KCNO 210253Z 26008KT 10SM CLR 10/M03 A3007 RMK AO2 SLP184 T01001028 51020
KCNO 210153Z 24011KT 10SM CLR 13/M01 A3006 RMK AO2 SLP178 T01281006
KCNO 210053Z 26014KT 10SM SCT100 15/M04 A3003 RMK AO2 SLP167 T01501044
KCNO 202353Z 27011KT 10SM SCT090 16/M03 A3001 RMK AO2 SLP161 T01611028 10172 20128 53003
KCNO 202253Z 26010KT 10SM SCT080 17/M02 A3000 RMK AO2 SLP157 T01721022
KCNO 202153Z COR 23008KT 10SM SCT070 17/M02 A3000 RMK AO2 SLP156 T01671022
KCNO 202053Z 30010KT 10SM SCT070 SCT100 16/01 A3000 RMK AO2 SLP158 T01610006 58013
KCNO 201953Z 25007KT 10SM SCT080 SCT200 16/01 A3002 RMK AO2 SLP164 T01560006
KCNO 201853Z VRB04KT 10SM SCT080 SCT200 14/03 A3004 RMK AO2 SLP171 T01440028
KCNO 201753Z 28006KT 10SM SCT080 SCT200 12/02 A3004 RMK AO2 SLP172 60000 T01220017 10128 20078 51029
KCNO 201653Z 22006KT 10SM FEW040 SCT050 SCT150 12/03 A3002 RMK AO2 SLP165 T01170028
KCNO 201553Z 22004KT 10SM FEW017 SCT050 SCT150 10/04 A2999 RMK AO2 SLP153 T01000039
KCNO 201453Z 00000KT 10SM FEW017 SCT050 SCT150 09/06 A2995 RMK AO2 SLP142 60000 T00940061 53011
KCNO 201414Z AUTO 00000KT 9SM FEW014 10/07 A2994 RMK AO2 T01000067
KCNO 201353Z AUTO 22003KT 7SM BKN014 10/08 A2994 RMK AO2 LTG DSNT E SLP135 T01000083
KCNO 201316Z AUTO 00000KT 7SM BKN014 BKN031 OVC075 11/09 A2993 RMK AO2 T01060089
KCNO 201253Z AUTO 00000KT 7SM FEW016 BKN060 OVC070 11/09 A2993 RMK AO2 LTG DSNT E RAB35E45 SLP131 P0000 T01060089
KCNO 201232Z AUTO 00000KT 7SM FEW014 BKN055 OVC070 11/09 A2992 RMK AO2 T01060089
KCNO 201153Z AUTO 00000KT 7SM OVC019 11/09 A2992 RMK AO2 SLP129 60023 70025 T01110089 10122 20100 55002
KCNO 201104Z AUTO 05003KT 10SM SCT019 BKN024 OVC080 11/08 A2992 RMK AO2 T01110083
KCNO 201053Z AUTO 00000KT 9SM FEW021 BKN044 OVC080 11/08 A2992 RMK AO2 RAE02B30E52 SLP129 P0023 T01060083
KCNO 201045Z AUTO VRB03KT 3SM -RA FEW023 BKN046 OVC080 11/08 A2992 RMK AO2 RAE02B30 P0023 T01060078
KCNO 201038Z AUTO VRB04KT 1 3/4SM +RA BR SCT016 BKN040 OVC055 11/08 A2991 RMK AO2 RAE02B30 P0021 T01060083
KCNO 201027Z AUTO VRB03KT 8SM SCT027 BKN040 OVC055 12/09 A2992 RMK AO2 RAE02 P0000 T01170094
KCNO 201013Z AUTO 02004KT 8SM BKN027 OVC036 12/09 A2992 RMK AO2 RAE02 P0000 T01170094
KCNO 200953Z AUTO 08004KT 6SM -RA BR FEW027 BKN048 OVC065 11/09 A2992 RMK AO2 RAB46 SLP130 P0000 T01110089
KCNO 200853Z AUTO 00000KT 8SM BKN049 BKN060 11/09 A2993 RMK AO2 SLP130 T01110089 56007
KCNO 200753Z 00000KT 8SM FEW055 11/08 A2993 RMK AO2 SLP134 T01060083 401940078
KCNO 200653Z 20006KT 8SM CLR 12/09 A2994 RMK AO2 SLP135 T01170089
KCNO 200553Z 19006KT 8SM SCT060 12/09 A2995 RMK AO2 SLP138 60002 T01220089 10167 20122 53011
KCNO 200453Z 23010KT 8SM FEW075 13/10 A2992 RMK AO2 SLP131 T01280100
KCNO 200353Z 26007KT 10SM FEW037 SCT046 BKN060 14/11 A2992 RMK AO2 RAB0258E40 SLP129 P0002 T01390111
KCNO 200253Z 24012KT 10SM SCT060 BKN075 15/12 A2991 RMK AO2 SLP127 T01500117 55003
KCNO 200153Z COR 24010KT 10SM FEW039 BKN045 OVC055 15/12 A2991 RMK AO2 SLP127 T01500117
KCNO 200053Z 24014KT 5SM HZ BKN029 BKN070 BKN200 16/11 A2992 RMK AO2 SLP128 T01560111
KCNO 192353Z 24011KT 5SM HZ BKN032 BKN075 17/11 A2992 RMK AO2 SLP130 T01670111 10194 20161 56011
KCNO 192253Z 26011KT 6SM HZ BKN024 BKN070 17/11 A2993 RMK AO2 SLP133 T01720111
KCNO 192153Z 27013KT 10SM BKN029 BKN065 18/11 A2993 RMK AO2 SLP135 T01830106
KCNO 192053Z 28008KT 6SM HZ BKN029 BKN200 19/11 A2995 RMK AO2 SLP140 T01940106 58031
KCNO 191953Z 28005KT 6SM HZ BKN029 18/10 A2999 RMK AO2 SLP153 T01780100
KCNO 191853Z 25004KT 6SM HZ BKN020 17/10 A3003 RMK AO2 SLP165 T01720100
KCNO 191753Z 27004KT 4SM HZ BKN019 16/11 A3005 RMK AO2 SLP173 T01610111 10161 20078 51006
KCNO 191653Z VRB06KT 3SM HZ BKN019 15/12 A3005 RMK AO2 SLP172 T01500117
KCNO 191610Z 36004KT 3SM BR BKN019 12/11 A3004 RMK AO2 T01170106
KCNO 191553Z 35004KT 2SM BR BKN018 10/09 A3004 RMK AO2 SLP169 T01000089
KCNO 191543Z 35003KT 1SM BR OVC018 10/09 A3004 RMK AO2 T01000089
KCNO 191507Z 00000KT 3/4SM BR VV017 09/08 A3004 RMK AO2 T00940083